sensor_id;sensor_type;location;lat;lon;timestamp;P1;durP1;ratioP1;P2;durP2;ratioP2
10059;SDS011;5069;49.306;8.636;2023-04-03T00:01:30;2.60;;;1.50;;
10059;SDS011;5069;49.306;8.636;2023-04-03T00:04:32;3.63;;;1.70;;
10059;SDS011;5069;49.306;8.636;2023-04-03T00:07:33;1.80;;;1.50;;
10059;SDS011;5069;49.306;8.636;2023-04-03T00:10:36;2.33;;;1.67;;
10059;SDS011;5069;49.306;8.636;2023-04-03T00:13:39;2.97;;;1.70;;
10059;SDS011;5069;49.306;8.636;2023-04-03T00:16:41;2.13;;;1.53;;
10059;SDS011;5069;49.306;8.636;2023-04-03T00:19:42;4.83;;;1.90;;
10059;SDS011;5069;49.306;8.636;2023-04-03T00:22:44;3.87;;;1.77;;
10059;SDS011;5069;49.306;8.636;2023-04-03T00:25:46;1.63;;;1.53;;
10059;SDS011;5069;49.306;8.636;2023-04-03T00:28:47;3.57;;;1.80;;
10059;SDS011;5069;49.306;8.636;2023-04-03T00:31:48;2.67;;;1.73;;
10059;SDS011;5069;49.306;8.636;2023-04-03T00:34:50;3.03;;;1.70;;
10059;SDS011;5069;49.306;8.636;2023-04-03T00:37:52;3.23;;;1.80;;
10059;SDS011;5069;49.306;8.636;2023-04-03T00:40:55;1.50;;;1.40;;
10059;SDS011;5069;49.306;8.636;2023-04-03T00:43:56;6.10;;;2.27;;
10059;SDS011;5069;49.306;8.636;2023-04-03T00:46:58;2.03;;;1.67;;
10059;SDS011;5069;49.306;8.636;2023-04-03T00:49:59;4.00;;;1.70;;
10059;SDS011;5069;49.306;8.636;2023-04-03T00:53:01;1.97;;;1.60;;
10059;SDS011;5069;49.306;8.636;2023-04-03T00:56:05;2.10;;;1.70;;
10059;SDS011;5069;49.306;8.636;2023-04-03T00:59:11;2.40;;;1.90;;
10059;SDS011;5069;49.306;8.636;2023-04-03T01:02:19;3.77;;;1.77;;
10059;SDS011;5069;49.306;8.636;2023-04-03T01:05:21;2.83;;;1.67;;
10059;SDS011;5069;49.306;8.636;2023-04-03T01:08:23;2.37;;;1.70;;
10059;SDS011;5069;49.306;8.636;2023-04-03T01:11:25;2.07;;;1.40;;
10059;SDS011;5069;49.306;8.636;2023-04-03T01:14:27;2.30;;;1.50;;
10059;SDS011;5069;49.306;8.636;2023-04-03T01:17:36;2.40;;;1.80;;
10059;SDS011;5069;49.306;8.636;2023-04-03T01:21:27;2.50;;;1.50;;
10059;SDS011;5069;49.306;8.636;2023-04-03T01:24:34;2.87;;;1.77;;
10059;SDS011;5069;49.306;8.636;2023-04-03T01:27:41;3.23;;;1.70;;
10059;SDS011;5069;49.306;8.636;2023-04-03T01:30:45;1.83;;;1.40;;
10059;SDS011;5069;49.306;8.636;2023-04-03T01:33:52;1.70;;;1.50;;
10059;SDS011;5069;49.306;8.636;2023-04-03T01:36:55;2.93;;;1.43;;
10059;SDS011;5069;49.306;8.636;2023-04-03T01:39:57;3.63;;;1.60;;
10059;SDS011;5069;49.306;8.636;2023-04-03T01:42:58;3.10;;;1.70;;
10059;SDS011;5069;49.306;8.636;2023-04-03T01:46:00;1.90;;;1.70;;
10059;SDS011;5069;49.306;8.636;2023-04-03T01:49:01;2.53;;;1.40;;
10059;SDS011;5069;49.306;8.636;2023-04-03T01:52:03;2.60;;;1.53;;
10059;SDS011;5069;49.306;8.636;2023-04-03T01:55:05;2.33;;;1.50;;
10059;SDS011;5069;49.306;8.636;2023-04-03T01:58:06;2.17;;;1.40;;
10059;SDS011;5069;49.306;8.636;2023-04-03T02:01:08;3.47;;;1.80;;
10059;SDS011;5069;49.306;8.636;2023-04-03T02:04:10;2.80;;;1.70;;
10059;SDS011;5069;49.306;8.636;2023-04-03T02:07:12;2.47;;;1.50;;
10059;SDS011;5069;49.306;8.636;2023-04-03T02:10:13;4.50;;;1.73;;
10059;SDS011;5069;49.306;8.636;2023-04-03T02:13:16;3.50;;;1.60;;
10059;SDS011;5069;49.306;8.636;2023-04-03T02:16:19;5.70;;;1.80;;
10059;SDS011;5069;49.306;8.636;2023-04-03T02:19:22;3.23;;;1.67;;
10059;SDS011;5069;49.306;8.636;2023-04-03T02:22:24;1.73;;;1.50;;
10059;SDS011;5069;49.306;8.636;2023-04-03T02:25:26;3.47;;;1.50;;
10059;SDS011;5069;49.306;8.636;2023-04-03T02:28:27;2.00;;;1.30;;
10059;SDS011;5069;49.306;8.636;2023-04-03T02:31:30;3.67;;;1.70;;
10059;SDS011;5069;49.306;8.636;2023-04-03T02:34:33;1.80;;;1.40;;
10059;SDS011;5069;49.306;8.636;2023-04-03T02:37:36;1.53;;;1.33;;
10059;SDS011;5069;49.306;8.636;2023-04-03T02:40:38;2.73;;;1.30;;
10059;SDS011;5069;49.306;8.636;2023-04-03T02:43:40;3.40;;;1.50;;
10059;SDS011;5069;49.306;8.636;2023-04-03T02:46:41;3.37;;;1.53;;
10059;SDS011;5069;49.306;8.636;2023-04-03T02:49:43;2.30;;;1.50;;
10059;SDS011;5069;49.306;8.636;2023-04-03T02:52:47;3.30;;;1.43;;
10059;SDS011;5069;49.306;8.636;2023-04-03T02:55:49;1.90;;;1.40;;
10059;SDS011;5069;49.306;8.636;2023-04-03T02:58:51;2.37;;;1.67;;
10059;SDS011;5069;49.306;8.636;2023-04-03T03:01:53;2.93;;;1.40;;
10059;SDS011;5069;49.306;8.636;2023-04-03T03:04:54;1.93;;;1.40;;
10059;SDS011;5069;49.306;8.636;2023-04-03T03:07:57;1.73;;;1.30;;
10059;SDS011;5069;49.306;8.636;2023-04-03T03:10:59;3.10;;;1.70;;
10059;SDS011;5069;49.306;8.636;2023-04-03T03:14:01;1.90;;;1.40;;
10059;SDS011;5069;49.306;8.636;2023-04-03T03:17:03;2.00;;;1.60;;
10059;SDS011;5069;49.306;8.636;2023-04-03T03:20:05;3.27;;;1.70;;
10059;SDS011;5069;49.306;8.636;2023-04-03T03:23:07;2.00;;;1.50;;
10059;SDS011;5069;49.306;8.636;2023-04-03T03:26:09;2.20;;;1.60;;
10059;SDS011;5069;49.306;8.636;2023-04-03T03:29:11;2.07;;;1.53;;
10059;SDS011;5069;49.306;8.636;2023-04-03T03:32:13;1.90;;;1.50;;
10059;SDS011;5069;49.306;8.636;2023-04-03T03:35:14;1.90;;;1.40;;
10059;SDS011;5069;49.306;8.636;2023-04-03T03:38:16;2.60;;;1.63;;
10059;SDS011;5069;49.306;8.636;2023-04-03T03:41:17;1.63;;;1.27;;
10059;SDS011;5069;49.306;8.636;2023-04-03T03:44:19;1.97;;;1.50;;
10059;SDS011;5069;49.306;8.636;2023-04-03T03:47:21;2.27;;;1.30;;
10059;SDS011;5069;49.306;8.636;2023-04-03T03:50:23;5.87;;;1.80;;
10059;SDS011;5069;49.306;8.636;2023-04-03T03:53:25;2.87;;;1.60;;
10059;SDS011;5069;49.306;8.636;2023-04-03T03:56:31;1.77;;;1.60;;
10059;SDS011;5069;49.306;8.636;2023-04-03T03:59:32;1.50;;;1.40;;
10059;SDS011;5069;49.306;8.636;2023-04-03T04:02:34;2.33;;;1.47;;
10059;SDS011;5069;49.306;8.636;2023-04-03T04:05:36;2.40;;;1.70;;
10059;SDS011;5069;49.306;8.636;2023-04-03T04:08:38;2.83;;;1.50;;
10059;SDS011;5069;49.306;8.636;2023-04-03T04:11:42;1.70;;;1.43;;
10059;SDS011;5069;49.306;8.636;2023-04-03T04:14:46;2.13;;;1.80;;
10059;SDS011;5069;49.306;8.636;2023-04-03T04:17:49;2.63;;;1.67;;
10059;SDS011;5069;49.306;8.636;2023-04-03T04:20:51;2.73;;;1.67;;
10059;SDS011;5069;49.306;8.636;2023-04-03T04:23:52;2.47;;;1.73;;
10059;SDS011;5069;49.306;8.636;2023-04-03T04:26:54;2.07;;;1.43;;
10059;SDS011;5069;49.306;8.636;2023-04-03T04:29:56;1.60;;;1.50;;
10059;SDS011;5069;49.306;8.636;2023-04-03T04:33:01;2.53;;;1.50;;
10059;SDS011;5069;49.306;8.636;2023-04-03T04:36:03;2.37;;;1.70;;
10059;SDS011;5069;49.306;8.636;2023-04-03T04:39:05;3.07;;;1.90;;
10059;SDS011;5069;49.306;8.636;2023-04-03T04:42:07;2.17;;;1.60;;
10059;SDS011;5069;49.306;8.636;2023-04-03T04:45:17;2.00;;;1.80;;
10059;SDS011;5069;49.306;8.636;2023-04-03T04:48:21;3.13;;;1.70;;
10059;SDS011;5069;49.306;8.636;2023-04-03T04:51:22;2.70;;;1.83;;
10059;SDS011;5069;49.306;8.636;2023-04-03T04:54:24;3.07;;;1.80;;
10059;SDS011;5069;49.306;8.636;2023-04-03T04:57:26;2.30;;;1.67;;
10059;SDS011;5069;49.306;8.636;2023-04-03T05:00:30;2.10;;;1.70;;
10059;SDS011;5069;49.306;8.636;2023-04-03T05:03:32;2.73;;;1.80;;
10059;SDS011;5069;49.306;8.636;2023-04-03T05:06:34;3.50;;;1.50;;
10059;SDS011;5069;49.306;8.636;2023-04-03T05:09:42;2.70;;;1.60;;
10059;SDS011;5069;49.306;8.636;2023-04-03T05:12:47;2.80;;;1.60;;
10059;SDS011;5069;49.306;8.636;2023-04-03T05:15:48;4.70;;;1.83;;
10059;SDS011;5069;49.306;8.636;2023-04-03T05:18:50;3.33;;;1.90;;
10059;SDS011;5069;49.306;8.636;2023-04-03T05:21:55;1.93;;;1.70;;
10059;SDS011;5069;49.306;8.636;2023-04-03T05:24:57;2.60;;;1.80;;
10059;SDS011;5069;49.306;8.636;2023-04-03T05:27:59;3.10;;;1.97;;
10059;SDS011;5069;49.306;8.636;2023-04-03T05:31:01;3.87;;;1.80;;
10059;SDS011;5069;49.306;8.636;2023-04-03T05:34:08;3.97;;;1.90;;
10059;SDS011;5069;49.306;8.636;2023-04-03T05:37:11;2.93;;;1.80;;
10059;SDS011;5069;49.306;8.636;2023-04-03T05:40:13;4.27;;;2.10;;
10059;SDS011;5069;49.306;8.636;2023-04-03T05:43:17;2.30;;;1.60;;
10059;SDS011;5069;49.306;8.636;2023-04-03T05:46:19;3.33;;;2.07;;
10059;SDS011;5069;49.306;8.636;2023-04-03T05:49:26;2.10;;;1.90;;
10059;SDS011;5069;49.306;8.636;2023-04-03T05:52:28;3.07;;;1.87;;
10059;SDS011;5069;49.306;8.636;2023-04-03T05:55:31;2.73;;;1.90;;
10059;SDS011;5069;49.306;8.636;2023-04-03T05:58:33;3.13;;;2.03;;
10059;SDS011;5069;49.306;8.636;2023-04-03T06:01:35;3.33;;;2.40;;
10059;SDS011;5069;49.306;8.636;2023-04-03T06:04:36;3.07;;;2.10;;
10059;SDS011;5069;49.306;8.636;2023-04-03T06:07:38;3.57;;;1.93;;
10059;SDS011;5069;49.306;8.636;2023-04-03T06:10:41;3.57;;;2.10;;
10059;SDS011;5069;49.306;8.636;2023-04-03T06:13:42;4.27;;;2.23;;
10059;SDS011;5069;49.306;8.636;2023-04-03T06:16:44;4.03;;;2.10;;
10059;SDS011;5069;49.306;8.636;2023-04-03T06:19:46;4.40;;;2.40;;
10059;SDS011;5069;49.306;8.636;2023-04-03T06:22:49;3.63;;;2.00;;
10059;SDS011;5069;49.306;8.636;2023-04-03T06:25:50;3.80;;;2.23;;
10059;SDS011;5069;49.306;8.636;2023-04-03T06:28:51;2.97;;;2.30;;
10059;SDS011;5069;49.306;8.636;2023-04-03T06:31:53;2.37;;;2.17;;
10059;SDS011;5069;49.306;8.636;2023-04-03T06:34:54;3.67;;;2.17;;
10059;SDS011;5069;49.306;8.636;2023-04-03T06:37:56;3.40;;;2.30;;
10059;SDS011;5069;49.306;8.636;2023-04-03T06:40:58;2.73;;;2.37;;
10059;SDS011;5069;49.306;8.636;2023-04-03T06:43:59;3.40;;;2.17;;
10059;SDS011;5069;49.306;8.636;2023-04-03T06:47:01;5.30;;;2.57;;
10059;SDS011;5069;49.306;8.636;2023-04-03T06:50:02;5.53;;;3.40;;
10059;SDS011;5069;49.306;8.636;2023-04-03T06:53:04;5.43;;;3.37;;
10059;SDS011;5069;49.306;8.636;2023-04-03T06:56:07;4.77;;;2.97;;
10059;SDS011;5069;49.306;8.636;2023-04-03T06:59:09;4.90;;;3.00;;
10059;SDS011;5069;49.306;8.636;2023-04-03T07:02:14;5.77;;;3.00;;
10059;SDS011;5069;49.306;8.636;2023-04-03T07:05:15;4.13;;;2.63;;
10059;SDS011;5069;49.306;8.636;2023-04-03T07:08:17;4.97;;;2.73;;
10059;SDS011;5069;49.306;8.636;2023-04-03T07:11:19;3.83;;;2.37;;
10059;SDS011;5069;49.306;8.636;2023-04-03T07:14:21;4.93;;;2.30;;
10059;SDS011;5069;49.306;8.636;2023-04-03T07:17:23;4.13;;;2.10;;
10059;SDS011;5069;49.306;8.636;2023-04-03T07:20:24;3.07;;;2.30;;
10059;SDS011;5069;49.306;8.636;2023-04-03T07:23:26;4.07;;;2.20;;
10059;SDS011;5069;49.306;8.636;2023-04-03T07:26:27;2.73;;;2.00;;
10059;SDS011;5069;49.306;8.636;2023-04-03T07:29:29;4.63;;;1.87;;
10059;SDS011;5069;49.306;8.636;2023-04-03T07:32:31;4.27;;;1.80;;
10059;SDS011;5069;49.306;8.636;2023-04-03T07:35:32;3.23;;;1.90;;
10059;SDS011;5069;49.306;8.636;2023-04-03T07:38:34;3.53;;;1.80;;
10059;SDS011;5069;49.306;8.636;2023-04-03T07:41:37;2.80;;;1.60;;
10059;SDS011;5069;49.306;8.636;2023-04-03T07:44:38;3.70;;;1.70;;
10059;SDS011;5069;49.306;8.636;2023-04-03T07:47:40;2.97;;;2.00;;
10059;SDS011;5069;49.306;8.636;2023-04-03T07:50:42;5.67;;;1.90;;
10059;SDS011;5069;49.306;8.636;2023-04-03T07:53:43;4.00;;;1.80;;
10059;SDS011;5069;49.306;8.636;2023-04-03T07:56:45;3.23;;;2.03;;
10059;SDS011;5069;49.306;8.636;2023-04-03T07:59:46;3.47;;;1.80;;
10059;SDS011;5069;49.306;8.636;2023-04-03T08:02:47;2.43;;;1.60;;
10059;SDS011;5069;49.306;8.636;2023-04-03T08:05:51;6.07;;;1.83;;
10059;SDS011;5069;49.306;8.636;2023-04-03T08:08:54;5.77;;;1.60;;
10059;SDS011;5069;49.306;8.636;2023-04-03T08:11:56;6.03;;;2.70;;
10059;SDS011;5069;49.306;8.636;2023-04-03T08:14:59;3.40;;;1.80;;
10059;SDS011;5069;49.306;8.636;2023-04-03T08:18:01;3.33;;;1.70;;
10059;SDS011;5069;49.306;8.636;2023-04-03T08:21:06;4.83;;;1.70;;
10059;SDS011;5069;49.306;8.636;2023-04-03T08:24:08;2.43;;;1.57;;
10059;SDS011;5069;49.306;8.636;2023-04-03T08:27:10;3.27;;;1.60;;
10059;SDS011;5069;49.306;8.636;2023-04-03T08:30:11;2.97;;;1.50;;
10059;SDS011;5069;49.306;8.636;2023-04-03T08:33:13;2.37;;;1.33;;
10059;SDS011;5069;49.306;8.636;2023-04-03T08:36:28;2.53;;;1.70;;
10059;SDS011;5069;49.306;8.636;2023-04-03T08:39:31;2.70;;;1.70;;
10059;SDS011;5069;49.306;8.636;2023-04-03T08:45:53;3.70;;;1.63;;
10059;SDS011;5069;49.306;8.636;2023-04-03T08:48:58;3.27;;;1.73;;
10059;SDS011;5069;49.306;8.636;2023-04-03T08:52:03;4.17;;;1.80;;
10059;SDS011;5069;49.306;8.636;2023-04-03T08:55:18;4.27;;;1.60;;
10059;SDS011;5069;49.306;8.636;2023-04-03T08:58:25;2.23;;;1.40;;
10059;SDS011;5069;49.306;8.636;2023-04-03T09:04:36;4.03;;;1.67;;
10059;SDS011;5069;49.306;8.636;2023-04-03T09:07:45;3.93;;;1.60;;
10059;SDS011;5069;49.306;8.636;2023-04-03T09:10:52;4.37;;;1.40;;
10059;SDS011;5069;49.306;8.636;2023-04-03T09:14:22;2.90;;;1.60;;
10059;SDS011;5069;49.306;8.636;2023-04-03T09:24:24;3.10;;;1.50;;
10059;SDS011;5069;49.306;8.636;2023-04-03T09:27:26;2.60;;;1.50;;
10059;SDS011;5069;49.306;8.636;2023-04-03T09:30:28;1.80;;;1.20;;
10059;SDS011;5069;49.306;8.636;2023-04-03T09:33:30;3.53;;;1.50;;
10059;SDS011;5069;49.306;8.636;2023-04-03T09:36:45;3.43;;;1.53;;
10059;SDS011;5069;49.306;8.636;2023-04-03T09:39:51;2.40;;;1.40;;
10059;SDS011;5069;49.306;8.636;2023-04-03T09:42:58;2.93;;;1.23;;
10059;SDS011;5069;49.306;8.636;2023-04-03T09:46:23;2.57;;;1.13;;
10059;SDS011;5069;49.306;8.636;2023-04-03T09:49:27;3.53;;;1.40;;
10059;SDS011;5069;49.306;8.636;2023-04-03T09:52:29;2.73;;;1.47;;
10059;SDS011;5069;49.306;8.636;2023-04-03T09:55:32;2.53;;;1.50;;
10059;SDS011;5069;49.306;8.636;2023-04-03T09:58:44;3.17;;;1.60;;
10059;SDS011;5069;49.306;8.636;2023-04-03T10:02:18;2.30;;;1.47;;
10059;SDS011;5069;49.306;8.636;2023-04-03T10:08:32;3.17;;;1.20;;
10059;SDS011;5069;49.306;8.636;2023-04-03T10:11:35;1.33;;;1.20;;
10059;SDS011;5069;49.306;8.636;2023-04-03T10:14:56;4.07;;;1.70;;
10059;SDS011;5069;49.306;8.636;2023-04-03T10:18:02;2.73;;;1.00;;
10059;SDS011;5069;49.306;8.636;2023-04-03T10:24:58;2.80;;;1.53;;
10059;SDS011;5069;49.306;8.636;2023-04-03T10:34:42;2.70;;;1.27;;
10059;SDS011;5069;49.306;8.636;2023-04-03T10:41:45;3.90;;;1.67;;
10059;SDS011;5069;49.306;8.636;2023-04-03T10:45:06;3.13;;;1.40;;
10059;SDS011;5069;49.306;8.636;2023-04-03T10:51:52;1.93;;;1.00;;
10059;SDS011;5069;49.306;8.636;2023-04-03T10:58:38;2.13;;;1.07;;
10059;SDS011;5069;49.306;8.636;2023-04-03T11:01:44;1.23;;;0.97;;
10059;SDS011;5069;49.306;8.636;2023-04-03T11:08:33;2.67;;;1.20;;
10059;SDS011;5069;49.306;8.636;2023-04-03T11:11:40;1.87;;;1.10;;
10059;SDS011;5069;49.306;8.636;2023-04-03T11:14:43;5.20;;;1.30;;
10059;SDS011;5069;49.306;8.636;2023-04-03T11:17:53;4.40;;;1.30;;
10059;SDS011;5069;49.306;8.636;2023-04-03T11:21:03;2.23;;;1.40;;
10059;SDS011;5069;49.306;8.636;2023-04-03T11:24:14;2.87;;;1.37;;
10059;SDS011;5069;49.306;8.636;2023-04-03T11:27:22;2.70;;;1.30;;
10059;SDS011;5069;49.306;8.636;2023-04-03T11:30:27;4.00;;;1.60;;
10059;SDS011;5069;49.306;8.636;2023-04-03T11:33:55;3.13;;;1.63;;
10059;SDS011;5069;49.306;8.636;2023-04-03T11:37:05;2.00;;;1.37;;
10059;SDS011;5069;49.306;8.636;2023-04-03T11:43:29;1.83;;;1.13;;
10059;SDS011;5069;49.306;8.636;2023-04-03T11:46:51;2.07;;;1.40;;
10059;SDS011;5069;49.306;8.636;2023-04-03T11:49:59;6.40;;;1.83;;
10059;SDS011;5069;49.306;8.636;2023-04-03T11:53:03;3.03;;;1.37;;
10059;SDS011;5069;49.306;8.636;2023-04-03T11:56:29;2.23;;;1.20;;
10059;SDS011;5069;49.306;8.636;2023-04-03T11:59:36;2.77;;;1.50;;
10059;SDS011;5069;49.306;8.636;2023-04-03T12:02:38;3.10;;;1.20;;
10059;SDS011;5069;49.306;8.636;2023-04-03T12:05:42;2.93;;;1.47;;
10059;SDS011;5069;49.306;8.636;2023-04-03T12:08:45;2.40;;;1.37;;
10059;SDS011;5069;49.306;8.636;2023-04-03T12:11:48;2.50;;;1.40;;
10059;SDS011;5069;49.306;8.636;2023-04-03T12:14:50;2.17;;;1.33;;
10059;SDS011;5069;49.306;8.636;2023-04-03T12:17:52;2.27;;;1.50;;
10059;SDS011;5069;49.306;8.636;2023-04-03T12:20:55;1.97;;;1.30;;
10059;SDS011;5069;49.306;8.636;2023-04-03T12:27:09;2.03;;;1.40;;
10059;SDS011;5069;49.306;8.636;2023-04-03T12:30:27;5.13;;;1.40;;
10059;SDS011;5069;49.306;8.636;2023-04-03T12:34:14;3.43;;;1.50;;
10059;SDS011;5069;49.306;8.636;2023-04-03T12:44:06;2.23;;;1.70;;
10059;SDS011;5069;49.306;8.636;2023-04-03T12:47:23;3.17;;;1.50;;
10059;SDS011;5069;49.306;8.636;2023-04-03T12:50:28;2.40;;;1.60;;
10059;SDS011;5069;49.306;8.636;2023-04-03T12:53:34;1.90;;;1.70;;
10059;SDS011;5069;49.306;8.636;2023-04-03T12:56:37;2.47;;;1.47;;
10059;SDS011;5069;49.306;8.636;2023-04-03T12:59:39;4.63;;;1.37;;
10059;SDS011;5069;49.306;8.636;2023-04-03T13:02:43;4.33;;;1.50;;
10059;SDS011;5069;49.306;8.636;2023-04-03T13:05:47;3.27;;;1.60;;
10059;SDS011;5069;49.306;8.636;2023-04-03T13:08:49;2.37;;;1.40;;
10059;SDS011;5069;49.306;8.636;2023-04-03T13:15:16;2.13;;;1.40;;
10059;SDS011;5069;49.306;8.636;2023-04-03T13:21:32;4.20;;;1.50;;
10059;SDS011;5069;49.306;8.636;2023-04-03T13:24:36;3.40;;;1.43;;
10059;SDS011;5069;49.306;8.636;2023-04-03T13:27:40;2.90;;;1.20;;
10059;SDS011;5069;49.306;8.636;2023-04-03T13:31:05;3.07;;;1.20;;
10059;SDS011;5069;49.306;8.636;2023-04-03T13:34:13;3.57;;;1.60;;
10059;SDS011;5069;49.306;8.636;2023-04-03T13:37:23;2.13;;;1.33;;
10059;SDS011;5069;49.306;8.636;2023-04-03T13:40:26;2.53;;;1.50;;
10059;SDS011;5069;49.306;8.636;2023-04-03T13:43:34;1.57;;;1.30;;
10059;SDS011;5069;49.306;8.636;2023-04-03T13:46:37;2.00;;;1.47;;
10059;SDS011;5069;49.306;8.636;2023-04-03T13:49:40;2.10;;;1.30;;
10059;SDS011;5069;49.306;8.636;2023-04-03T13:52:55;2.83;;;1.67;;
10059;SDS011;5069;49.306;8.636;2023-04-03T13:59:38;1.90;;;1.47;;
10059;SDS011;5069;49.306;8.636;2023-04-03T14:02:33;1.47;;;1.27;;
10059;SDS011;5069;49.306;8.636;2023-04-03T14:05:35;2.23;;;1.57;;
10059;SDS011;5069;49.306;8.636;2023-04-03T14:08:37;2.33;;;1.50;;
10059;SDS011;5069;49.306;8.636;2023-04-03T14:11:44;2.80;;;1.80;;
10059;SDS011;5069;49.306;8.636;2023-04-03T14:14:47;3.13;;;1.83;;
10059;SDS011;5069;49.306;8.636;2023-04-03T14:17:49;4.23;;;1.77;;
10059;SDS011;5069;49.306;8.636;2023-04-03T14:20:52;3.20;;;1.53;;
10059;SDS011;5069;49.306;8.636;2023-04-03T14:23:54;4.53;;;1.73;;
10059;SDS011;5069;49.306;8.636;2023-04-03T14:26:55;1.83;;;1.30;;
10059;SDS011;5069;49.306;8.636;2023-04-03T14:29:58;2.50;;;1.70;;
10059;SDS011;5069;49.306;8.636;2023-04-03T14:33:00;2.30;;;1.60;;
10059;SDS011;5069;49.306;8.636;2023-04-03T14:36:05;3.93;;;1.47;;
10059;SDS011;5069;49.306;8.636;2023-04-03T14:39:16;3.27;;;1.70;;
10059;SDS011;5069;49.306;8.636;2023-04-03T14:42:20;2.87;;;1.60;;
10059;SDS011;5069;49.306;8.636;2023-04-03T14:45:25;2.17;;;1.60;;
10059;SDS011;5069;49.306;8.636;2023-04-03T14:48:27;2.40;;;1.50;;
10059;SDS011;5069;49.306;8.636;2023-04-03T14:51:31;1.60;;;1.30;;
10059;SDS011;5069;49.306;8.636;2023-04-03T14:54:32;2.30;;;1.67;;
10059;SDS011;5069;49.306;8.636;2023-04-03T14:57:34;1.97;;;1.23;;
10059;SDS011;5069;49.306;8.636;2023-04-03T15:00:36;2.00;;;1.47;;
10059;SDS011;5069;49.306;8.636;2023-04-03T15:03:38;3.57;;;1.53;;
10059;SDS011;5069;49.306;8.636;2023-04-03T15:06:39;2.23;;;1.40;;
10059;SDS011;5069;49.306;8.636;2023-04-03T15:09:41;3.77;;;2.00;;
10059;SDS011;5069;49.306;8.636;2023-04-03T15:12:43;2.73;;;1.80;;
10059;SDS011;5069;49.306;8.636;2023-04-03T15:15:45;2.73;;;1.70;;
10059;SDS011;5069;49.306;8.636;2023-04-03T15:18:47;3.70;;;1.87;;
10059;SDS011;5069;49.306;8.636;2023-04-03T15:21:48;4.40;;;1.90;;
10059;SDS011;5069;49.306;8.636;2023-04-03T15:24:50;2.30;;;1.67;;
10059;SDS011;5069;49.306;8.636;2023-04-03T15:27:52;2.20;;;1.70;;
10059;SDS011;5069;49.306;8.636;2023-04-03T15:30:55;2.57;;;1.70;;
10059;SDS011;5069;49.306;8.636;2023-04-03T15:33:57;4.00;;;1.87;;
10059;SDS011;5069;49.306;8.636;2023-04-03T15:36:58;4.67;;;1.90;;
10059;SDS011;5069;49.306;8.636;2023-04-03T15:40:00;2.33;;;1.53;;
10059;SDS011;5069;49.306;8.636;2023-04-03T15:43:01;3.03;;;1.73;;
10059;SDS011;5069;49.306;8.636;2023-04-03T15:46:03;3.83;;;1.93;;
10059;SDS011;5069;49.306;8.636;2023-04-03T15:49:05;2.47;;;1.60;;
10059;SDS011;5069;49.306;8.636;2023-04-03T15:52:06;2.77;;;1.50;;
10059;SDS011;5069;49.306;8.636;2023-04-03T15:55:08;3.40;;;1.70;;
10059;SDS011;5069;49.306;8.636;2023-04-03T15:58:10;2.60;;;1.40;;
10059;SDS011;5069;49.306;8.636;2023-04-03T16:01:12;3.03;;;1.50;;
10059;SDS011;5069;49.306;8.636;2023-04-03T16:04:13;3.60;;;1.50;;
10059;SDS011;5069;49.306;8.636;2023-04-03T16:07:17;2.03;;;1.37;;
10059;SDS011;5069;49.306;8.636;2023-04-03T16:10:18;2.17;;;1.27;;
10059;SDS011;5069;49.306;8.636;2023-04-03T16:13:20;2.13;;;1.07;;
10059;SDS011;5069;49.306;8.636;2023-04-03T16:16:22;2.37;;;1.40;;
10059;SDS011;5069;49.306;8.636;2023-04-03T16:19:24;1.30;;;1.03;;
10059;SDS011;5069;49.306;8.636;2023-04-03T16:22:27;3.07;;;1.70;;
10059;SDS011;5069;49.306;8.636;2023-04-03T16:25:29;2.40;;;1.73;;
10059;SDS011;5069;49.306;8.636;2023-04-03T16:28:32;3.23;;;1.50;;
10059;SDS011;5069;49.306;8.636;2023-04-03T16:31:33;2.73;;;1.60;;
10059;SDS011;5069;49.306;8.636;2023-04-03T16:34:35;3.87;;;1.50;;
10059;SDS011;5069;49.306;8.636;2023-04-03T16:37:37;2.90;;;1.40;;
10059;SDS011;5069;49.306;8.636;2023-04-03T16:40:39;2.97;;;1.40;;
10059;SDS011;5069;49.306;8.636;2023-04-03T16:43:41;4.70;;;1.80;;
10059;SDS011;5069;49.306;8.636;2023-04-03T16:46:43;3.03;;;1.77;;
10059;SDS011;5069;49.306;8.636;2023-04-03T16:49:48;2.70;;;2.30;;
10059;SDS011;5069;49.306;8.636;2023-04-03T16:52:50;4.13;;;2.80;;
10059;SDS011;5069;49.306;8.636;2023-04-03T16:55:51;2.77;;;2.00;;
10059;SDS011;5069;49.306;8.636;2023-04-03T16:58:53;3.60;;;1.70;;
10059;SDS011;5069;49.306;8.636;2023-04-03T17:01:54;2.13;;;1.30;;
10059;SDS011;5069;49.306;8.636;2023-04-03T17:04:56;2.70;;;1.70;;
10059;SDS011;5069;49.306;8.636;2023-04-03T17:07:58;2.23;;;1.60;;
10059;SDS011;5069;49.306;8.636;2023-04-03T17:10:59;2.07;;;1.50;;
10059;SDS011;5069;49.306;8.636;2023-04-03T17:14:01;3.97;;;1.97;;
10059;SDS011;5069;49.306;8.636;2023-04-03T17:17:03;3.60;;;1.70;;
10059;SDS011;5069;49.306;8.636;2023-04-03T17:20:05;4.47;;;1.80;;
10059;SDS011;5069;49.306;8.636;2023-04-03T17:23:07;2.07;;;1.30;;
10059;SDS011;5069;49.306;8.636;2023-04-03T17:26:09;2.20;;;1.80;;
10059;SDS011;5069;49.306;8.636;2023-04-03T17:29:10;6.70;;;1.70;;
10059;SDS011;5069;49.306;8.636;2023-04-03T17:32:12;2.57;;;1.80;;
10059;SDS011;5069;49.306;8.636;2023-04-03T17:35:13;2.40;;;1.60;;
10059;SDS011;5069;49.306;8.636;2023-04-03T17:38:15;2.33;;;2.00;;
10059;SDS011;5069;49.306;8.636;2023-04-03T17:41:17;3.23;;;1.80;;
10059;SDS011;5069;49.306;8.636;2023-04-03T17:44:18;2.97;;;2.17;;
10059;SDS011;5069;49.306;8.636;2023-04-03T17:47:19;8.07;;;2.93;;
10059;SDS011;5069;49.306;8.636;2023-04-03T17:50:21;4.70;;;3.10;;
10059;SDS011;5069;49.306;8.636;2023-04-03T17:53:22;4.43;;;2.57;;
10059;SDS011;5069;49.306;8.636;2023-04-03T17:56:25;3.97;;;2.30;;
10059;SDS011;5069;49.306;8.636;2023-04-03T17:59:29;3.33;;;2.30;;
10059;SDS011;5069;49.306;8.636;2023-04-03T18:02:32;5.17;;;3.20;;
10059;SDS011;5069;49.306;8.636;2023-04-03T18:05:33;5.33;;;2.53;;
10059;SDS011;5069;49.306;8.636;2023-04-03T18:08:36;4.73;;;2.90;;
10059;SDS011;5069;49.306;8.636;2023-04-03T18:11:40;3.10;;;1.70;;
10059;SDS011;5069;49.306;8.636;2023-04-03T18:14:43;2.93;;;1.60;;
10059;SDS011;5069;49.306;8.636;2023-04-03T18:17:45;4.20;;;1.57;;
10059;SDS011;5069;49.306;8.636;2023-04-03T18:20:50;2.93;;;1.50;;
10059;SDS011;5069;49.306;8.636;2023-04-03T18:23:52;3.33;;;1.87;;
10059;SDS011;5069;49.306;8.636;2023-04-03T18:26:57;2.10;;;1.73;;
10059;SDS011;5069;49.306;8.636;2023-04-03T18:30:06;2.67;;;1.60;;
10059;SDS011;5069;49.306;8.636;2023-04-03T18:33:09;3.77;;;1.70;;
10059;SDS011;5069;49.306;8.636;2023-04-03T18:36:10;2.87;;;1.80;;
10059;SDS011;5069;49.306;8.636;2023-04-03T18:39:12;6.50;;;1.90;;
10059;SDS011;5069;49.306;8.636;2023-04-03T18:42:14;2.50;;;1.67;;
10059;SDS011;5069;49.306;8.636;2023-04-03T18:45:20;4.60;;;2.17;;
10059;SDS011;5069;49.306;8.636;2023-04-03T18:48:23;3.43;;;1.63;;
10059;SDS011;5069;49.306;8.636;2023-04-03T18:51:26;4.67;;;2.37;;
10059;SDS011;5069;49.306;8.636;2023-04-03T18:54:27;3.50;;;2.50;;
10059;SDS011;5069;49.306;8.636;2023-04-03T18:57:29;4.00;;;2.43;;
10059;SDS011;5069;49.306;8.636;2023-04-03T19:00:31;3.73;;;2.43;;
10059;SDS011;5069;49.306;8.636;2023-04-03T19:03:33;3.60;;;2.23;;
10059;SDS011;5069;49.306;8.636;2023-04-03T19:06:37;4.50;;;2.60;;
10059;SDS011;5069;49.306;8.636;2023-04-03T19:09:38;4.80;;;2.27;;
10059;SDS011;5069;49.306;8.636;2023-04-03T19:12:40;5.13;;;3.30;;
10059;SDS011;5069;49.306;8.636;2023-04-03T19:15:42;4.37;;;2.93;;
10059;SDS011;5069;49.306;8.636;2023-04-03T19:18:43;4.27;;;2.93;;
10059;SDS011;5069;49.306;8.636;2023-04-03T19:21:45;3.60;;;2.17;;
10059;SDS011;5069;49.306;8.636;2023-04-03T19:24:46;4.87;;;2.60;;
10059;SDS011;5069;49.306;8.636;2023-04-03T19:27:48;3.63;;;2.50;;
10059;SDS011;5069;49.306;8.636;2023-04-03T19:30:49;3.43;;;2.23;;
10059;SDS011;5069;49.306;8.636;2023-04-03T19:33:51;4.43;;;2.40;;
10059;SDS011;5069;49.306;8.636;2023-04-03T19:36:53;5.93;;;2.20;;
10059;SDS011;5069;49.306;8.636;2023-04-03T19:39:55;4.20;;;2.10;;
10059;SDS011;5069;49.306;8.636;2023-04-03T19:42:57;3.40;;;2.17;;
10059;SDS011;5069;49.306;8.636;2023-04-03T19:45:59;3.30;;;2.03;;
10059;SDS011;5069;49.306;8.636;2023-04-03T19:49:01;2.50;;;1.63;;